createdAt,value
2023-05-23T00:01:19.323Z,22.92
2023-05-23T00:03:47.348Z,22.92
2023-05-23T00:06:14.713Z,22.92
2023-05-23T00:08:41.238Z,22.91
2023-05-23T00:11:07.696Z,22.91
2023-05-23T00:13:34.855Z,22.91
2023-05-23T00:16:02.502Z,22.90
2023-05-23T00:18:28.932Z,22.91
2023-05-23T00:20:57.412Z,22.90
2023-05-23T00:23:25.291Z,22.89
2023-05-23T00:25:53.421Z,22.89
2023-05-23T00:28:20.059Z,22.89
2023-05-23T00:30:46.583Z,22.89
2023-05-23T00:33:14.440Z,22.89
2023-05-23T00:35:41.631Z,22.88
2023-05-23T00:38:08.937Z,22.89
2023-05-23T00:40:35.331Z,22.88
2023-05-23T00:43:01.891Z,22.87
2023-05-23T00:45:28.402Z,22.87
2023-05-23T00:47:54.909Z,22.87
2023-05-23T00:50:21.503Z,22.87
2023-05-23T00:52:48.014Z,22.87
2023-05-23T00:55:14.526Z,22.87
2023-05-23T00:57:44.510Z,22.86
2023-05-23T01:00:15.234Z,22.86
2023-05-23T01:02:45.587Z,22.86
2023-05-23T01:05:14.871Z,22.85
2023-05-23T01:07:41.584Z,22.85
2023-05-23T01:10:08.248Z,22.84
2023-05-23T01:12:41.024Z,22.86
2023-05-23T01:15:11.095Z,22.84
2023-05-23T01:17:37.480Z,22.84
2023-05-23T01:20:10.203Z,22.83
2023-05-23T01:22:44.245Z,22.83
2023-05-23T01:25:12.099Z,22.83
2023-05-23T01:27:48.782Z,22.84
2023-05-23T01:30:15.165Z,22.83
2023-05-23T01:32:41.616Z,22.82
2023-05-23T01:35:08.317Z,22.82
2023-05-23T01:37:36.140Z,22.83
2023-05-23T01:40:02.673Z,22.82
2023-05-23T01:42:29.170Z,22.82
2023-05-23T01:44:59.270Z,22.82
2023-05-23T01:47:25.840Z,22.82
2023-05-23T01:49:52.298Z,22.80
2023-05-23T01:52:18.692Z,22.82
2023-05-23T01:54:45.177Z,22.81
2023-05-23T01:57:12.440Z,22.80
2023-05-23T01:59:39.058Z,22.81
2023-05-23T02:02:05.974Z,22.80
2023-05-23T02:04:32.486Z,22.79
2023-05-23T02:06:58.893Z,22.78
2023-05-23T02:09:25.385Z,22.78
2023-05-23T02:11:51.810Z,22.79
2023-05-23T02:14:18.702Z,22.79
2023-05-23T02:16:45.744Z,22.78
2023-05-23T02:19:12.254Z,22.78
2023-05-23T02:21:38.891Z,22.77
2023-05-23T02:24:05.318Z,22.77
2023-05-23T02:26:31.758Z,22.78
2023-05-23T02:28:58.161Z,22.76
2023-05-23T02:31:24.659Z,22.77
2023-05-23T02:33:51.124Z,22.77
2023-05-23T02:36:17.553Z,22.77
2023-05-23T02:38:43.971Z,22.76
2023-05-23T02:41:10.923Z,22.74
2023-05-23T02:43:37.790Z,22.76
2023-05-23T02:46:04.965Z,22.75
2023-05-23T02:48:32.612Z,22.75
2023-05-23T02:50:59.146Z,22.74
2023-05-23T02:53:26.038Z,22.75
2023-05-23T02:55:52.570Z,22.74
2023-05-23T02:58:19.080Z,22.73
2023-05-23T03:00:45.628Z,22.74
2023-05-23T03:03:12.691Z,22.73
2023-05-23T03:05:39.533Z,22.74
2023-05-23T03:08:06.833Z,22.73
2023-05-23T03:10:33.967Z,22.73
2023-05-23T03:13:00.578Z,22.73
2023-05-23T03:15:27.128Z,22.72
2023-05-23T03:17:53.739Z,22.72
2023-05-23T03:20:20.285Z,22.71
2023-05-23T03:22:46.780Z,22.71
2023-05-23T03:25:14.915Z,22.71
2023-05-23T03:27:41.412Z,22.71
2023-05-23T03:30:08.028Z,22.70
2023-05-23T03:32:34.945Z,22.71
2023-05-23T03:35:01.516Z,22.70
2023-05-23T03:37:27.987Z,22.69
2023-05-23T03:39:54.490Z,22.70
2023-05-23T03:42:20.977Z,22.69
2023-05-23T03:44:47.556Z,22.69
2023-05-23T03:47:14.091Z,22.69
2023-05-23T03:49:42.924Z,22.69
2023-05-23T03:52:09.512Z,22.69
2023-05-23T03:54:36.000Z,22.68
2023-05-23T03:57:02.982Z,22.68
2023-05-23T03:59:29.931Z,22.66
2023-05-23T04:01:58.951Z,22.67
2023-05-23T04:04:26.339Z,22.67
2023-05-23T04:06:52.987Z,22.67
2023-05-23T04:09:19.576Z,22.67
2023-05-23T04:11:47.851Z,22.66
2023-05-23T04:14:14.676Z,22.65
2023-05-23T04:16:42.265Z,22.66
2023-05-23T04:19:09.373Z,22.65
2023-05-23T04:21:36.056Z,22.66
2023-05-23T04:24:08.398Z,22.65
2023-05-23T04:26:36.300Z,22.65
2023-05-23T04:29:04.366Z,22.64
2023-05-23T04:31:31.557Z,22.64
2023-05-23T04:33:58.273Z,22.64
2023-05-23T04:36:25.755Z,22.65
2023-05-23T04:38:54.243Z,22.64
2023-05-23T04:41:23.596Z,22.63
2023-05-23T04:44:06.091Z,22.64
2023-05-23T04:46:45.343Z,22.64
2023-05-23T04:49:16.708Z,22.63
2023-05-23T04:51:43.356Z,22.62
2023-05-23T04:54:20.294Z,22.62
2023-05-23T04:56:46.790Z,22.49
2023-05-23T04:59:14.900Z,22.56
2023-05-23T05:01:41.577Z,22.62
2023-05-23T05:04:09.049Z,22.59
2023-05-23T05:06:35.750Z,22.61
2023-05-23T05:09:02.155Z,22.62
2023-05-23T05:11:28.639Z,22.62
2023-05-23T05:13:55.221Z,22.61
2023-05-23T05:16:21.803Z,22.62
2023-05-23T05:18:49.865Z,22.61
2023-05-23T05:21:16.306Z,22.60
2023-05-23T05:23:43.569Z,22.61
2023-05-23T05:26:10.033Z,22.61
2023-05-23T05:28:38.173Z,22.61
2023-05-23T05:31:05.318Z,22.61
2023-05-23T05:33:37.693Z,22.59
2023-05-23T05:36:12.806Z,22.60
2023-05-23T05:38:40.081Z,22.59
2023-05-23T05:41:08.945Z,22.58
2023-05-23T05:43:38.886Z,22.59
2023-05-23T05:46:05.313Z,22.58
2023-05-23T05:48:32.347Z,22.58
2023-05-23T05:51:03.297Z,22.58
2023-05-23T05:53:32.385Z,22.57
2023-05-23T05:55:58.862Z,22.57
2023-05-23T05:58:25.304Z,22.58
2023-05-23T06:00:59.089Z,22.58
2023-05-23T06:03:26.147Z,22.57
2023-05-23T06:05:54.430Z,22.57
2023-05-23T06:08:21.325Z,22.57
2023-05-23T06:10:48.370Z,22.56
2023-05-23T06:13:14.828Z,22.56
2023-05-23T06:15:44.250Z,22.56
2023-05-23T06:18:11.742Z,22.56
2023-05-23T06:20:38.523Z,22.56
2023-05-23T06:23:09.619Z,22.56
2023-05-23T06:25:36.115Z,22.56
2023-05-23T06:28:02.557Z,22.55
2023-05-23T06:30:30.494Z,22.56
2023-05-23T06:32:57.054Z,22.56
2023-05-23T06:35:25.138Z,22.55
2023-05-23T06:37:51.518Z,22.54
2023-05-23T06:40:18.286Z,22.56
2023-05-23T06:42:44.686Z,22.54
2023-05-23T06:45:22.578Z,22.55
2023-05-23T06:47:49.334Z,22.53
2023-05-23T06:50:15.837Z,22.53
2023-05-23T06:52:42.936Z,22.52
2023-05-23T06:55:09.891Z,22.53
2023-05-23T06:57:36.566Z,22.53
2023-05-23T07:00:03.070Z,22.52
2023-05-23T07:02:30.125Z,22.53
2023-05-23T07:04:56.590Z,22.51
2023-05-23T07:07:42.712Z,22.53
2023-05-23T07:10:09.667Z,22.53
2023-05-23T07:12:36.434Z,22.50
2023-05-23T07:15:04.074Z,22.49
2023-05-23T07:17:31.478Z,22.49
2023-05-23T07:19:57.939Z,22.47
2023-05-23T07:22:24.775Z,21.82
2023-05-23T07:24:51.717Z,21.48
2023-05-23T07:27:18.321Z,21.12
2023-05-23T07:29:44.862Z,21.05
2023-05-23T07:32:11.419Z,20.99
2023-05-23T07:34:37.869Z,20.84
2023-05-23T07:37:04.529Z,20.96
2023-05-23T07:39:38.261Z,20.87
2023-05-23T07:42:05.459Z,20.83
2023-05-23T07:44:31.983Z,20.56
2023-05-23T07:46:58.615Z,20.74
2023-05-23T07:49:25.693Z,20.93
2023-05-23T07:51:53.327Z,21.27
2023-05-23T07:54:19.744Z,21.28
2023-05-23T07:56:48.525Z,21.55
2023-05-23T07:59:15.581Z,21.60
2023-05-23T08:01:42.874Z,21.34
2023-05-23T08:04:13.089Z,21.27
2023-05-23T08:07:05.571Z,21.52
2023-05-23T08:09:42.260Z,21.71
2023-05-23T08:12:11.772Z,21.82
2023-05-23T08:14:50.441Z,21.87
2023-05-23T08:17:22.155Z,21.87
2023-05-23T08:19:48.813Z,21.93
2023-05-23T08:22:15.251Z,21.96
2023-05-23T08:24:41.627Z,22.02
2023-05-23T08:27:08.184Z,22.05
2023-05-23T08:29:35.382Z,22.13
2023-05-23T08:32:02.489Z,22.16
2023-05-23T08:34:29.186Z,22.16
2023-05-23T08:36:55.646Z,22.19
2023-05-23T08:39:22.136Z,22.20
2023-05-23T08:41:55.297Z,22.21
2023-05-23T08:44:21.835Z,22.23
2023-05-23T08:46:53.678Z,22.21
2023-05-23T08:49:38.672Z,22.27
2023-05-23T08:52:05.463Z,22.26
2023-05-23T08:54:35.363Z,22.28
2023-05-23T08:57:02.222Z,22.28
2023-05-23T08:59:30.748Z,22.30
2023-05-23T09:01:57.296Z,22.30
2023-05-23T09:04:23.984Z,22.27
2023-05-23T09:06:59.796Z,22.31
2023-05-23T09:09:26.223Z,22.35
2023-05-23T09:11:52.666Z,22.35
2023-05-23T09:14:19.654Z,22.35
2023-05-23T09:16:48.994Z,22.37
2023-05-23T09:19:17.777Z,22.37
2023-05-23T09:21:53.620Z,22.36
2023-05-23T09:24:35.083Z,22.34
2023-05-23T09:27:03.042Z,22.37
2023-05-23T09:29:29.853Z,22.40
2023-05-23T09:32:12.091Z,22.39
2023-05-23T09:34:55.222Z,22.40
2023-05-23T09:37:45.796Z,22.40
2023-05-23T09:40:13.486Z,22.40
2023-05-23T09:42:47.973Z,22.43
2023-05-23T09:45:15.134Z,22.39
2023-05-23T09:47:51.760Z,22.46
2023-05-23T09:50:18.392Z,22.45
2023-05-23T09:52:45.043Z,22.46
2023-05-23T09:55:11.570Z,22.46
2023-05-23T09:57:39.730Z,22.47
2023-05-23T10:00:07.020Z,22.47
2023-05-23T10:02:50.433Z,22.44
2023-05-23T10:05:22.450Z,22.41
2023-05-23T10:07:48.839Z,22.39
2023-05-23T10:10:15.221Z,22.42
2023-05-23T10:12:47.327Z,22.41
2023-05-23T10:15:14.142Z,22.46
2023-05-23T10:17:52.782Z,22.44
2023-05-23T10:20:19.236Z,22.48
2023-05-23T10:22:45.776Z,22.48
2023-05-23T10:25:12.163Z,22.50
2023-05-23T10:27:38.667Z,22.47
2023-05-23T10:30:06.545Z,22.45
2023-05-23T10:32:32.950Z,22.45
2023-05-23T10:35:00.220Z,22.40
2023-05-23T10:37:29.317Z,22.36
2023-05-23T10:40:01.065Z,22.31
2023-05-23T10:42:36.985Z,22.32
2023-05-23T10:45:18.940Z,22.27
2023-05-23T10:47:46.339Z,22.26
2023-05-23T10:50:13.917Z,22.30
2023-05-23T10:52:41.215Z,22.33
2023-05-23T10:55:14.390Z,22.40
2023-05-23T10:57:43.737Z,22.43
2023-05-23T11:00:16.182Z,22.42
2023-05-23T11:02:47.877Z,22.42
2023-05-23T11:05:23.326Z,22.43
2023-05-23T11:08:08.850Z,22.45
2023-05-23T11:10:51.322Z,22.44
2023-05-23T11:13:17.716Z,22.46
2023-05-23T11:15:45.725Z,22.46
2023-05-23T11:18:19.635Z,22.46
2023-05-23T11:20:47.471Z,22.47
2023-05-23T11:23:14.043Z,22.47
2023-05-23T11:25:42.067Z,22.47
2023-05-23T11:28:08.838Z,22.45
2023-05-23T11:30:36.850Z,22.44
2023-05-23T11:33:07.529Z,22.49
2023-05-23T11:35:34.717Z,22.49
2023-05-23T11:38:01.169Z,22.49
2023-05-23T11:40:28.184Z,22.50
2023-05-23T11:42:54.841Z,22.41
2023-05-23T11:45:21.994Z,22.26
2023-05-23T11:47:48.395Z,22.27
2023-05-23T11:50:15.602Z,22.35
2023-05-23T11:52:42.469Z,22.43
2023-05-23T11:55:09.086Z,22.46
2023-05-23T11:57:38.646Z,22.48
2023-05-23T12:00:08.908Z,22.48
2023-05-23T12:02:38.832Z,22.53
2023-05-23T12:05:11.714Z,22.54
2023-05-23T12:07:56.007Z,22.51
2023-05-23T12:10:22.639Z,22.50
2023-05-23T12:12:49.187Z,22.51
2023-05-23T12:15:16.030Z,22.51
2023-05-23T12:17:48.509Z,22.51
2023-05-23T12:20:15.162Z,22.51
2023-05-23T12:22:42.000Z,22.52
2023-05-23T12:25:08.789Z,22.53
2023-05-23T12:27:35.631Z,22.53
2023-05-23T12:30:09.200Z,22.56
2023-05-23T12:32:37.364Z,22.57
2023-05-23T12:35:04.099Z,22.55
2023-05-23T12:37:30.771Z,22.58
2023-05-23T12:39:57.220Z,22.58
2023-05-23T12:42:23.605Z,22.55
2023-05-23T12:44:51.733Z,22.57
2023-05-23T12:47:18.335Z,22.57
2023-05-23T12:49:46.627Z,22.61
2023-05-23T12:52:13.052Z,22.59
2023-05-23T12:54:39.465Z,22.61
2023-05-23T12:57:05.885Z,22.62
2023-05-23T12:59:32.286Z,22.63
2023-05-23T13:01:59.713Z,22.62
2023-05-23T13:04:26.192Z,22.63
2023-05-23T13:06:53.071Z,22.60
2023-05-23T13:09:19.628Z,22.60
2023-05-23T13:11:46.655Z,22.61
2023-05-23T13:14:14.000Z,22.61
2023-05-23T13:16:40.676Z,22.59
2023-05-23T13:19:07.718Z,22.59
2023-05-23T13:21:34.134Z,22.59
2023-05-23T13:24:00.514Z,22.58
2023-05-23T13:26:27.240Z,22.57
2023-05-23T13:28:53.606Z,22.57
2023-05-23T13:31:20.043Z,22.55
2023-05-23T13:33:46.467Z,22.56
2023-05-23T13:36:12.874Z,22.57
2023-05-23T13:38:39.275Z,22.57
2023-05-23T13:41:05.669Z,22.55
2023-05-23T13:43:32.095Z,22.58
2023-05-23T13:45:58.589Z,22.57
2023-05-23T13:48:25.023Z,22.56
2023-05-23T13:50:51.436Z,22.56
2023-05-23T13:53:17.829Z,22.53
2023-05-23T13:55:45.244Z,22.57
2023-05-23T13:58:11.866Z,22.57
2023-05-23T14:00:38.401Z,22.56
2023-05-23T14:03:04.852Z,22.56
2023-05-23T14:05:31.521Z,22.55
2023-05-23T14:07:57.961Z,22.54
2023-05-23T14:10:24.355Z,22.53
2023-05-23T14:12:50.749Z,22.54
2023-05-23T14:15:18.275Z,22.54
2023-05-23T14:17:44.740Z,22.52
2023-05-23T14:20:11.286Z,22.53
2023-05-23T14:22:37.685Z,22.52
2023-05-23T14:25:04.194Z,22.53
2023-05-23T14:27:30.599Z,22.52
2023-05-23T14:29:57.060Z,22.52
2023-05-23T14:32:23.479Z,22.52
2023-05-23T14:34:49.964Z,22.52
2023-05-23T14:37:16.361Z,22.51
2023-05-23T14:39:42.733Z,22.50
2023-05-23T14:42:09.161Z,22.51
2023-05-23T14:44:35.618Z,22.50
2023-05-23T14:47:02.021Z,22.50
2023-05-23T14:49:28.415Z,22.50
2023-05-23T14:51:54.793Z,22.47
2023-05-23T14:54:21.268Z,22.52
2023-05-23T14:56:47.821Z,22.52
2023-05-23T14:59:14.307Z,22.51
2023-05-23T15:01:41.232Z,22.52
2023-05-23T15:04:09.336Z,22.51
2023-05-23T15:06:35.932Z,22.51
2023-05-23T15:09:02.358Z,22.51
2023-05-23T15:11:28.815Z,22.51
2023-05-23T15:13:55.217Z,22.50
2023-05-23T15:16:21.894Z,22.49
2023-05-23T15:18:48.441Z,22.49
2023-05-23T15:21:14.916Z,22.48
2023-05-23T15:23:41.565Z,22.50
2023-05-23T15:26:08.145Z,22.50
2023-05-23T15:28:34.555Z,22.49
2023-05-23T15:31:00.970Z,22.49
2023-05-23T15:33:27.502Z,22.49
2023-05-23T15:35:54.801Z,22.47
2023-05-23T15:38:21.194Z,22.48
2023-05-23T15:40:48.879Z,22.47
2023-05-23T15:43:15.434Z,22.47
2023-05-23T15:45:44.471Z,22.47
2023-05-23T15:48:11.191Z,22.47
2023-05-23T15:50:37.633Z,22.47
2023-05-23T15:53:04.065Z,22.45
2023-05-23T15:55:30.557Z,22.46
2023-05-23T15:57:56.938Z,22.46
2023-05-23T16:00:23.368Z,22.46
2023-05-23T16:02:49.833Z,22.46
2023-05-23T16:05:16.296Z,22.46
2023-05-23T16:07:42.696Z,22.45
2023-05-23T16:10:09.242Z,22.44
2023-05-23T16:12:35.672Z,22.44
2023-05-23T16:15:02.137Z,22.44
2023-05-23T16:17:28.565Z,22.45
2023-05-23T16:19:54.970Z,22.44
2023-05-23T16:22:21.521Z,22.44
2023-05-23T16:24:47.929Z,22.44
2023-05-23T16:27:14.406Z,22.40
2023-05-23T16:29:40.794Z,22.49
2023-05-23T16:32:07.405Z,22.55
2023-05-23T16:34:35.224Z,22.64
2023-05-23T16:37:01.634Z,22.89
2023-05-23T16:39:28.021Z,23.02
2023-05-23T16:41:54.429Z,22.81
2023-05-23T16:44:20.840Z,22.82
2023-05-23T16:46:47.334Z,22.82
2023-05-23T16:49:13.738Z,22.75
2023-05-23T16:51:40.239Z,22.74
2023-05-23T16:54:06.652Z,22.81
2023-05-23T16:56:33.052Z,22.80
2023-05-23T16:58:59.455Z,22.72
2023-05-23T17:01:25.900Z,22.85
2023-05-23T17:03:52.762Z,22.93
2023-05-23T17:06:19.351Z,23.21
2023-05-23T17:08:45.791Z,23.21
2023-05-23T17:11:12.221Z,23.33
2023-05-23T17:13:38.605Z,23.04
2023-05-23T17:16:05.035Z,23.01
2023-05-23T17:18:31.985Z,22.99
2023-05-23T17:20:58.384Z,22.74
2023-05-23T17:23:24.984Z,22.70
2023-05-23T17:25:51.412Z,22.60
2023-05-23T17:28:17.803Z,22.74
2023-05-23T17:30:44.269Z,22.71
2023-05-23T17:33:13.616Z,22.39
2023-05-23T17:35:40.446Z,22.20
2023-05-23T17:38:07.095Z,22.20
2023-05-23T17:40:33.541Z,22.20
2023-05-23T17:43:00.031Z,22.44
2023-05-23T17:45:26.414Z,22.58
2023-05-23T17:47:52.863Z,22.63
2023-05-23T17:50:19.283Z,22.65
2023-05-23T17:52:45.836Z,22.64
2023-05-23T17:55:12.247Z,22.64
2023-05-23T17:57:38.649Z,22.65
2023-05-23T18:00:05.967Z,22.65
2023-05-23T18:02:39.016Z,22.65
2023-05-23T18:05:06.960Z,22.10
2023-05-23T18:07:33.363Z,22.29
2023-05-23T18:10:00.013Z,22.43
2023-05-23T18:12:26.978Z,22.48
2023-05-23T18:14:53.397Z,22.52
2023-05-23T18:17:19.857Z,22.53
2023-05-23T18:19:49.427Z,22.53
2023-05-23T18:22:16.694Z,22.52
2023-05-23T18:24:43.226Z,22.50
2023-05-23T18:27:09.639Z,22.46
2023-05-23T18:29:36.153Z,22.43
2023-05-23T18:32:02.702Z,22.42
2023-05-23T18:34:29.394Z,22.42
2023-05-23T18:36:55.882Z,22.43
2023-05-23T18:39:22.335Z,22.42
2023-05-23T18:41:48.800Z,22.44
2023-05-23T18:44:16.102Z,22.44
2023-05-23T18:46:43.410Z,22.43
2023-05-23T18:49:09.826Z,22.43
2023-05-23T18:51:36.966Z,22.43
2023-05-23T18:54:03.357Z,22.42
2023-05-23T18:56:29.777Z,22.42
2023-05-23T18:58:56.279Z,22.42
2023-05-23T19:01:22.878Z,22.41
2023-05-23T19:03:49.397Z,22.42
2023-05-23T19:06:15.918Z,22.39
2023-05-23T19:08:44.997Z,22.39
2023-05-23T19:11:11.402Z,22.38
2023-05-23T19:13:37.840Z,22.37
2023-05-23T19:16:04.372Z,22.38
2023-05-23T19:18:31.674Z,22.38
2023-05-23T19:20:58.100Z,22.36
2023-05-23T19:23:24.641Z,22.37
2023-05-23T19:25:51.080Z,22.35
2023-05-23T19:28:17.494Z,22.34
2023-05-23T19:30:44.078Z,22.34
2023-05-23T19:33:10.825Z,22.33
2023-05-23T19:35:37.344Z,22.32
2023-05-23T19:38:03.790Z,22.32
2023-05-23T19:40:30.217Z,22.30
2023-05-23T19:42:56.615Z,22.34
2023-05-23T19:45:23.048Z,22.35
2023-05-23T19:47:49.489Z,22.34
2023-05-23T19:50:15.961Z,22.32
2023-05-23T19:52:42.395Z,22.31
2023-05-23T19:55:09.095Z,22.29
2023-05-23T19:57:37.094Z,22.30
2023-05-23T20:00:05.101Z,22.29
2023-05-23T20:02:31.628Z,22.28
2023-05-23T20:04:58.067Z,22.27
2023-05-23T20:07:24.518Z,22.27
2023-05-23T20:09:51.291Z,22.27
2023-05-23T20:12:17.685Z,22.26
2023-05-23T20:14:44.099Z,22.26
2023-05-23T20:17:10.481Z,22.26
2023-05-23T20:19:36.964Z,22.26
2023-05-23T20:22:03.605Z,22.24
2023-05-23T20:24:31.746Z,22.24
2023-05-23T20:26:58.206Z,22.24
2023-05-23T20:29:24.604Z,22.24
2023-05-23T20:31:51.311Z,22.22
2023-05-23T20:34:17.743Z,22.22
2023-05-23T20:36:44.119Z,22.22
2023-05-23T20:39:10.518Z,22.20
2023-05-23T20:41:37.026Z,22.22
2023-05-23T20:44:03.425Z,22.21
2023-05-23T20:46:29.854Z,22.20
2023-05-23T20:48:57.390Z,22.18
2023-05-23T20:51:24.006Z,22.18
2023-05-23T20:53:51.406Z,22.18
2023-05-23T20:56:18.167Z,22.18
2023-05-23T20:58:45.792Z,22.17
2023-05-23T21:01:12.311Z,22.17
2023-05-23T21:03:38.750Z,22.16
2023-05-23T21:06:05.268Z,22.16
2023-05-23T21:08:33.842Z,22.16
2023-05-23T21:11:01.273Z,22.16
2023-05-23T21:13:27.657Z,22.16
2023-05-23T21:15:54.074Z,22.14
2023-05-23T21:18:20.524Z,22.15
2023-05-23T21:20:46.931Z,22.15
2023-05-23T21:23:13.349Z,22.14
2023-05-23T21:25:39.740Z,22.13
2023-05-23T21:28:06.143Z,22.13
2023-05-23T21:30:32.650Z,22.12
2023-05-23T21:32:59.213Z,22.12
2023-05-23T21:35:25.634Z,22.14
2023-05-23T21:37:52.041Z,22.16
2023-05-23T21:40:18.439Z,22.15
2023-05-23T21:42:44.894Z,22.15
2023-05-23T21:45:11.346Z,22.14
2023-05-23T21:47:37.854Z,22.12
2023-05-23T21:50:04.601Z,22.11
2023-05-23T21:52:31.064Z,22.10
2023-05-23T21:54:57.447Z,22.09
2023-05-23T21:57:23.993Z,22.10
2023-05-23T21:59:50.375Z,22.09
2023-05-23T22:02:17.290Z,22.09
2023-05-23T22:04:44.816Z,22.09
2023-05-23T22:07:11.226Z,22.08
2023-05-23T22:09:37.636Z,22.08
2023-05-23T22:12:04.119Z,22.08
2023-05-23T22:14:30.760Z,22.06
2023-05-23T22:16:59.042Z,22.06
2023-05-23T22:19:26.317Z,22.06
2023-05-23T22:21:53.224Z,22.07
2023-05-23T22:24:19.605Z,22.07
2023-05-23T22:26:46.082Z,22.07
2023-05-23T22:29:12.465Z,22.06
2023-05-23T22:31:39.434Z,22.05
2023-05-23T22:34:05.883Z,22.04
2023-05-23T22:36:33.472Z,22.05
2023-05-23T22:39:02.241Z,22.04
2023-05-23T22:41:28.711Z,22.04
2023-05-23T22:43:55.164Z,22.02
2023-05-23T22:46:21.574Z,22.03
2023-05-23T22:48:47.969Z,22.02
2023-05-23T22:51:14.634Z,22.02
2023-05-23T22:53:41.408Z,22.01
2023-05-23T22:56:07.813Z,22.02
2023-05-23T22:58:34.206Z,22.00
2023-05-23T23:01:00.674Z,22.01
2023-05-23T23:03:27.142Z,22.00
2023-05-23T23:05:53.569Z,22.00
2023-05-23T23:08:20.014Z,21.99
2023-05-23T23:10:46.480Z,21.99
2023-05-23T23:13:15.951Z,21.99
2023-05-23T23:15:43.108Z,21.98
2023-05-23T23:18:09.708Z,21.98
2023-05-23T23:20:36.481Z,21.97
2023-05-23T23:23:03.079Z,21.97
2023-05-23T23:25:30.359Z,21.97
2023-05-23T23:27:56.756Z,21.97
2023-05-23T23:30:23.131Z,21.96
2023-05-23T23:32:49.600Z,21.96
2023-05-23T23:35:16.025Z,21.96
2023-05-23T23:37:42.496Z,21.95
2023-05-23T23:40:09.073Z,21.95
2023-05-23T23:42:35.574Z,21.94
2023-05-23T23:45:01.977Z,21.94
2023-05-23T23:47:28.399Z,21.94
2023-05-23T23:49:54.815Z,21.94
2023-05-23T23:52:21.190Z,21.93
2023-05-23T23:54:47.921Z,21.93
2023-05-23T23:57:14.384Z,21.93
2023-05-23T23:59:41.361Z,21.92
